Time;durP1;ratioP1;P1;durP2;ratioP2;P2;SDS_P1;SDS_P2;PMS_P1;PMS_P2;Temp;Humidity;BMP_temperature;BMP_pressure;BME280_temperature;BME280_humidity;BME280_pressure;Samples;Min_cycle;Max_cycle;Signal;HPM_P1;HPM_P2
2022/12/21 00:01:32;;;;;;;17.87;8.45;;;;;;;1.36;71.30;100885.05;1743574;82;21115;-50
2022/12/21 00:04:04;;;;;;;18.27;8.65;;;;;;;1.36;71.29;100890.94;1743611;82;21126;-51
2022/12/21 00:06:35;;;;;;;19.12;8.80;;;;;;;1.37;71.29;100896.70;1743757;82;21123;-49
2022/12/21 00:09:09;;;;;;;21.35;9.35;;;;;;;1.37;71.38;100896.70;1743938;82;21182;-50
2022/12/21 00:11:39;;;;;;;18.20;8.88;;;;;;;1.37;71.50;100897.56;1743706;82;21159;-50
2022/12/21 00:14:09;;;;;;;20.40;9.18;;;;;;;1.38;71.56;100893.88;1743564;82;21143;-51
2022/12/21 00:16:39;;;;;;;18.23;8.75;;;;;;;1.38;71.61;100888.48;1743811;82;21118;-51
2022/12/21 00:19:14;;;;;;;19.73;8.73;;;;;;;1.39;71.44;100890.19;1752321;81;21196;-51
2022/12/21 00:21:43;;;;;;;17.20;8.78;;;;;;;1.40;71.52;100885.16;1759657;81;21174;-51
2022/12/21 00:24:14;;;;;;;18.30;9.23;;;;;;;1.40;71.46;100883.81;1759622;81;21162;-50
2022/12/21 00:26:44;;;;;;;19.27;9.25;;;;;;;1.40;71.56;100895.10;1759475;81;21150;-50
2022/12/21 00:29:14;;;;;;;19.48;8.50;;;;;;;1.41;71.54;100894.11;1759627;81;21103;-50
2022/12/21 00:31:43;;;;;;;20.57;9.63;;;;;;;1.41;71.66;100889.58;1759542;81;21202;-50
2022/12/21 00:34:21;;;;;;;23.00;9.25;;;;;;;1.42;71.79;100888.59;1759662;81;21602;-51
2022/12/21 00:36:49;;;;;;;21.33;9.43;;;;;;;1.44;71.92;100896.07;1759449;81;21130;-50
2022/12/21 00:39:18;;;;;;;20.02;9.55;;;;;;;1.45;72.06;100892.38;1759554;81;21122;-50
2022/12/21 00:41:47;;;;;;;22.87;9.58;;;;;;;1.46;71.97;100881.95;1759554;81;21130;-50
2022/12/21 00:44:18;;;;;;;21.33;9.08;;;;;;;1.45;71.90;100868.08;1759787;81;21190;-51
2022/12/21 00:46:48;;;;;;;21.68;9.88;;;;;;;1.44;72.00;100865.02;1759463;81;21146;-52
2022/12/21 00:49:18;;;;;;;19.55;9.08;;;;;;;1.44;72.04;100859.62;1759649;81;21119;-51
2022/12/21 00:51:49;;;;;;;18.07;9.13;;;;;;;1.43;72.09;100857.91;1758550;81;21127;-54
2022/12/21 00:54:19;;;;;;;19.02;8.78;;;;;;;1.43;72.34;100848.45;1759573;81;21549;-51
2022/12/21 00:56:47;;;;;;;23.47;9.05;;;;;;;1.41;72.42;100843.67;1759686;81;21166;-52
2022/12/21 00:59:17;;;;;;;21.37;9.65;;;;;;;1.41;72.64;100840.98;1759492;81;21106;-52
2022/12/21 01:01:48;;;;;;;20.27;8.98;;;;;;;1.43;72.77;100855.70;1759413;81;21173;-52
2022/12/21 01:04:19;;;;;;;17.42;8.33;;;;;;;1.45;72.95;100862.69;1759608;81;21129;-51
2022/12/21 01:06:48;;;;;;;20.65;9.43;;;;;;;1.42;73.21;100854.84;1759486;81;21565;-51
2022/12/21 01:09:17;;;;;;;16.90;8.70;;;;;;;1.40;73.33;100849.20;1759518;81;21213;-52
2022/12/21 01:11:47;;;;;;;17.25;8.48;;;;;;;1.40;73.48;100839.75;1759820;81;21123;-51
2022/12/21 01:14:16;;;;;;;16.90;8.08;;;;;;;1.39;73.58;100838.04;1759704;81;21170;-51
2022/12/21 01:16:45;;;;;;;19.23;9.38;;;;;;;1.38;73.50;100846.63;1759697;81;21161;-52
2022/12/21 01:19:15;;;;;;;20.68;8.80;;;;;;;1.39;73.33;100851.05;1751926;81;21134;-50
2022/12/21 01:21:44;;;;;;;19.52;8.93;;;;;;;1.41;73.27;100842.33;1743607;82;21636;-52
2022/12/21 01:24:13;;;;;;;19.02;8.80;;;;;;;1.42;73.19;100839.98;1743772;82;21214;-51
2022/12/21 01:26:44;;;;;;;19.77;9.58;;;;;;;1.42;72.82;100831.89;1743666;82;21169;-53
2022/12/21 01:29:14;;;;;;;16.87;8.50;;;;;;;1.42;72.69;100825.14;1743811;82;21091;-51
2022/12/21 01:31:42;;;;;;;21.35;9.63;;;;;;;1.41;72.54;100820.73;1743836;82;21158;-51
2022/12/21 01:34:11;;;;;;;20.25;9.28;;;;;;;1.43;72.51;100822.80;1743592;82;21131;-51
2022/12/21 01:36:41;;;;;;;17.77;8.53;;;;;;;1.43;72.41;100822.80;1743643;82;21127;-52
2022/12/21 01:39:09;;;;;;;16.20;7.85;;;;;;;1.45;72.29;100808.69;1743683;82;21158;-51
2022/12/21 01:41:38;;;;;;;19.07;8.55;;;;;;;1.47;72.08;100812.60;1743685;82;21142;-52
2022/12/21 01:44:53;;;;;;;19.85;8.60;;;;;;;1.48;71.74;100817.02;1743850;82;21163;-50
2022/12/21 01:47:33;;;;;;;21.42;9.05;;;;;;;1.47;71.60;100807.20;1760715;81;21170;-52
2022/12/21 01:50:16;;;;;;;16.52;8.13;;;;;;;1.49;71.69;100801.18;1748059;81;21178;-51
2022/12/21 01:52:45;;;;;;;19.05;9.08;;;;;;;1.50;71.74;100795.65;1690697;82;21181;-51
2022/12/21 01:55:14;;;;;;;17.45;8.60;;;;;;;1.52;71.69;100800.92;1762065;81;21095;-52
2022/12/21 01:57:43;;;;;;;20.30;9.03;;;;;;;1.55;71.60;100802.87;1732418;83;21130;-52
2022/12/21 02:00:15;;;;;;;17.75;8.25;;;;;;;1.56;71.65;100797.83;1762233;81;21174;-52
2022/12/21 02:02:51;;;;;;;21.90;9.25;;;;;;;1.58;71.76;100793.16;1732092;82;21205;-51
2022/12/21 02:05:35;;;;;;;20.00;8.90;;;;;;;1.60;71.74;100797.08;1762188;81;21134;-51
2022/12/21 02:08:04;;;;;;;20.05;9.08;;;;;;;1.59;71.62;100794.87;1732037;82;21126;-51
2022/12/21 02:10:33;;;;;;;22.87;8.90;;;;;;;1.62;71.65;100787.49;1762025;81;21178;-52
2022/12/21 02:13:06;;;;;;;23.25;9.48;;;;;;;1.60;71.62;100786.27;1732143;82;21098;-51
2022/12/21 02:16:01;;;;;;;21.77;9.15;;;;;;;1.63;71.56;100783.80;1762037;81;21145;-52
2022/12/21 02:19:03;;;;;;;21.48;8.95;;;;;;;1.62;71.49;100783.44;1732343;81;21174;-51
2022/12/21 02:21:55;;;;;;;17.40;8.45;;;;;;;1.63;71.26;100777.05;1767834;81;21154;-51
2022/12/21 02:25:03;;;;;;;21.25;8.35;;;;;;;1.62;71.22;100773.98;1767864;80;21082;-51
2022/12/21 02:27:55;;;;;;;21.90;9.10;;;;;;;1.62;71.34;100778.04;1768011;81;21157;-51
2022/12/21 02:30:27;;;;;;;21.35;9.23;;;;;;;1.63;71.05;100763.55;1767824;81;21189;-51
2022/12/21 02:33:38;;;;;;;18.42;8.85;;;;;;;1.62;71.00;100761.34;1767856;81;21130;-51
2022/12/21 02:36:36;;;;;;;20.68;8.53;;;;;;;1.63;71.06;100762.20;1767622;81;21145;-51
2022/12/21 02:39:26;;;;;;;15.00;7.15;;;;;;;1.63;71.14;100756.30;1767810;81;21204;-51
2022/12/21 02:45:52;;;;;;;20.27;9.00;;;;;;;1.63;71.23;100771.16;1767598;81;21146;-52
2022/12/21 02:48:29;;;;;;;22.05;9.63;;;;;;;1.64;71.04;100774.72;1767712;81;21177;-50
2022/12/21 02:51:01;;;;;;;20.10;9.05;;;;;;;1.65;70.91;100777.28;1767589;81;21122;-51
2022/12/21 02:53:33;;;;;;;19.60;9.43;;;;;;;1.64;70.87;100780.97;1767925;81;21581;-51
2022/12/21 02:56:02;;;;;;;20.80;9.48;;;;;;;1.65;70.92;100781.83;1767637;81;21569;-52
2022/12/21 02:58:31;;;;;;;21.48;9.30;;;;;;;1.66;70.63;100778.14;1767652;81;21126;-50
2022/12/21 03:01:23;;;;;;;18.40;8.85;;;;;;;1.66;70.52;100779.48;1767685;81;21542;-50
2022/12/21 03:04:22;;;;;;;17.70;8.70;;;;;;;1.65;70.42;100773.23;1680522;81;21318;-50
2022/12/21 03:07:24;;;;;;;19.48;8.75;;;;;;;1.65;70.40;100771.03;1767705;81;21182;-50
2022/12/21 03:09:59;;;;;;;18.40;9.00;;;;;;;1.66;70.34;100770.03;1709337;81;21151;-51
2022/12/21 03:12:58;;;;;;;18.50;9.10;;;;;;;1.66;70.47;100763.28;1767577;81;21094;-51
2022/12/21 03:15:58;;;;;;;18.40;8.60;;;;;;;1.67;70.46;100767.70;1715280;80;21331;-52
2022/12/21 03:18:42;;;;;;;23.87;8.70;;;;;;;1.65;70.33;100767.83;1767850;81;21133;-50
2022/12/21 03:21:21;;;;;;;19.25;8.30;;;;;;;1.66;70.23;100765.49;1767654;81;21141;-51
2022/12/21 03:24:13;;;;;;;19.82;9.08;;;;;;;1.67;70.30;100758.25;1767574;81;21162;-53
2022/12/21 03:26:50;;;;;;;21.12;9.00;;;;;;;1.69;70.36;100766.58;1767691;81;21098;-51
2022/12/21 03:29:23;;;;;;;21.10;9.18;;;;;;;1.71;70.52;100763.75;1767801;81;21110;-50
2022/12/21 03:31:59;;;;;;;20.15;8.90;;;;;;;1.74;70.65;100779.20;1767611;81;21142;-49
2022/12/21 03:34:33;;;;;;;20.97;9.25;;;;;;;1.74;70.84;100770.23;1767837;81;21134;-51
2022/12/21 03:37:09;;;;;;;20.23;8.75;;;;;;;1.75;70.83;100766.05;1767938;81;21217;-50
2022/12/21 03:39:41;;;;;;;17.05;8.53;;;;;;;1.75;70.74;100766.55;1767650;81;21169;-51
2022/12/21 03:42:26;;;;;;;20.10;9.13;;;;;;;1.76;70.76;100761.50;1767596;81;21189;-52
2022/12/21 03:44:58;;;;;;;21.17;8.95;;;;;;;1.75;70.67;100755.24;1767629;81;21584;-50
2022/12/21 03:47:32;;;;;;;20.62;9.00;;;;;;;1.75;70.89;100752.55;1767897;81;21130;-49
2022/12/21 03:50:06;;;;;;;21.02;8.90;;;;;;;1.75;70.86;100748.49;1767776;81;21518;-51
2022/12/21 03:52:40;;;;;;;18.90;8.90;;;;;;;1.76;70.75;100748.00;1767582;81;21615;-50
2022/12/21 03:55:22;;;;;;;16.82;7.87;;;;;;;1.76;70.84;100746.64;1767499;81;21200;-51
2022/12/21 03:57:51;;;;;;;21.05;9.38;;;;;;;1.77;70.78;100744.30;1767542;81;21554;-51
2022/12/21 04:00:21;;;;;;;22.27;10.60;;;;;;;1.77;70.94;100749.70;1767952;81;21177;-51
2022/12/21 04:03:15;;;;;;;19.20;8.43;;;;;;;1.79;70.80;100757.19;1767608;81;21183;-51
2022/12/21 04:05:57;;;;;;;22.45;9.23;;;;;;;1.77;70.39;100751.06;1766698;81;21185;-51
2022/12/21 04:08:26;;;;;;;21.23;9.58;;;;;;;1.77;70.38;100751.92;1738322;81;21201;-50
2022/12/21 04:10:55;;;;;;;20.23;10.53;;;;;;;1.78;70.50;100754.12;1767605;81;21600;-50
2022/12/21 04:13:24;;;;;;;23.73;10.88;;;;;;;1.78;70.67;100753.62;1767523;81;21518;-51
2022/12/21 04:16:05;;;;;;;21.90;10.65;;;;;;;1.78;70.84;100750.92;1767485;81;21623;-51
2022/12/21 04:21:23;;;;;;;20.88;9.90;;;;;;;1.79;70.95;100746.38;1767600;81;21523;-51
2022/12/21 04:29:31;;;;;;;21.10;9.23;;;;;;;1.74;70.66;100730.57;1767684;81;21561;-51
2022/12/21 04:32:01;;;;;;;22.87;10.32;;;;;;;1.74;70.71;100739.17;1767574;81;21522;-50
2022/12/21 04:34:32;;;;;;;25.30;9.93;;;;;;;1.73;70.82;100737.45;1767393;81;21137;-51
2022/12/21 04:39:51;;;;;;;22.70;9.63;;;;;;;1.71;71.15;100735.38;1767603;81;21102;-51
2022/12/21 04:42:20;;;;;;;22.13;10.58;;;;;;;1.70;71.04;100736.38;1767571;81;21201;-51
2022/12/21 04:44:49;;;;;;;22.17;9.88;;;;;;;1.72;71.00;100738.45;1767714;81;21146;-50
2022/12/21 04:47:18;;;;;;;21.52;9.83;;;;;;;1.69;70.99;100728.77;1767580;81;21142;-49
2022/12/21 04:49:48;;;;;;;18.27;8.90;;;;;;;1.67;70.96;100723.13;1767601;81;21188;-50
2022/12/21 04:52:17;;;;;;;21.27;9.75;;;;;;;1.67;71.07;100723.13;1767770;81;21145;-51
2022/12/21 04:54:47;;;;;;;20.90;9.60;;;;;;;1.66;71.11;100724.13;1767870;81;21153;-50
2022/12/21 04:57:17;;;;;;;20.32;9.75;;;;;;;1.64;71.03;100719.34;1767626;81;21225;-51
2022/12/21 04:59:46;;;;;;;21.33;9.73;;;;;;;1.64;71.20;100724.25;1767577;81;21197;-50
2022/12/21 05:02:16;;;;;;;22.10;10.20;;;;;;;1.62;71.17;100719.97;1767625;81;21157;-50
2022/12/21 05:04:45;;;;;;;22.42;10.45;;;;;;;1.60;71.17;100717.41;1767905;81;21165;-50
2022/12/21 05:07:17;;;;;;;23.60;10.70;;;;;;;1.57;71.16;100713.62;1767522;81;21146;-50
2022/12/21 05:09:47;;;;;;;21.30;9.88;;;;;;;1.57;71.17;100717.18;1767558;81;21225;-51
2022/12/21 05:12:16;;;;;;;21.50;9.80;;;;;;;1.56;71.36;100724.91;1767444;81;21289;-50
2022/12/21 05:14:45;;;;;;;22.05;9.48;;;;;;;1.58;71.44;100724.78;1767566;81;21165;-50
2022/12/21 05:17:14;;;;;;;25.10;9.95;;;;;;;1.59;71.50;100735.45;1767640;81;21126;-50
2022/12/21 05:19:46;;;;;;;23.90;10.20;;;;;;;1.61;71.59;100733.11;1767675;81;21189;-51
2022/12/21 05:22:16;;;;;;;25.23;10.85;;;;;;;1.62;71.42;100733.48;1767622;81;21126;-51
2022/12/21 05:24:45;;;;;;;23.90;10.32;;;;;;;1.62;71.52;100739.73;1767589;81;21138;-50
2022/12/21 05:27:14;;;;;;;23.80;11.03;;;;;;;1.63;71.71;100737.89;1767761;81;21246;-50
2022/12/21 05:29:44;;;;;;;29.52;13.15;;;;;;;1.63;71.78;100735.19;1767595;81;21617;-50
2022/12/21 05:32:12;;;;;;;28.23;11.80;;;;;;;1.63;71.76;100736.55;1767659;81;21149;-51
2022/12/21 05:34:42;;;;;;;23.30;11.28;;;;;;;1.61;71.81;100729.92;1767575;81;21165;-50
2022/12/21 05:37:11;;;;;;;26.70;12.63;;;;;;;1.58;71.86;100739.14;1767564;81;21212;-50
2022/12/21 05:39:40;;;;;;;33.25;14.50;;;;;;;1.56;71.69;100735.72;1767639;81;21644;-51
2022/12/21 05:42:10;;;;;;;28.40;12.73;;;;;;;1.55;71.88;100744.80;1767368;81;21165;-50
2022/12/21 05:44:39;;;;;;;24.07;11.05;;;;;;;1.54;72.03;100736.34;1767469;81;21110;-51
2022/12/21 05:47:10;;;;;;;27.50;11.88;;;;;;;1.53;72.23;100744.58;1767267;81;21193;-50
2022/12/21 05:49:38;;;;;;;27.85;12.43;;;;;;;1.53;72.45;100737.83;1767506;81;21134;-50
2022/12/21 05:52:08;;;;;;;29.15;11.88;;;;;;;1.51;72.52;100730.34;1767505;81;21125;-52
2022/12/21 05:54:37;;;;;;;24.92;11.65;;;;;;;1.52;72.43;100730.22;1767545;81;21168;-50
2022/12/21 05:57:07;;;;;;;24.35;11.50;;;;;;;1.50;72.33;100719.19;1767719;81;21138;-50
2022/12/21 05:59:38;;;;;;;25.27;11.33;;;;;;;1.49;72.30;100726.43;1767528;81;21197;-51
2022/12/21 06:02:07;;;;;;;21.73;10.85;;;;;;;1.49;72.47;100725.08;1767509;81;21118;-50
2022/12/21 06:04:36;;;;;;;27.10;11.90;;;;;;;1.50;72.54;100725.94;1767578;81;21246;-51
2022/12/21 06:07:05;;;;;;;25.68;12.07;;;;;;;1.52;72.50;100731.57;1767510;81;21179;-52
2022/12/21 06:09:37;;;;;;;24.02;11.05;;;;;;;1.52;72.46;100726.17;1767673;81;21118;-51
2022/12/21 06:12:07;;;;;;;24.20;11.57;;;;;;;1.53;72.56;100729.23;1767451;81;21169;-51
2022/12/21 06:14:37;;;;;;;26.73;11.90;;;;;;;1.54;72.61;100726.89;1767506;81;21149;-51
2022/12/21 06:17:06;;;;;;;24.92;12.23;;;;;;;1.57;72.57;100728.47;1737826;81;21205;-51
2022/12/21 06:19:35;;;;;;;24.90;11.95;;;;;;;1.61;72.56;100720.97;1767602;81;21193;-51
2022/12/21 06:22:05;;;;;;;27.62;11.73;;;;;;;1.62;72.37;100723.53;1767596;81;21162;-51
2022/12/21 06:24:34;;;;;;;27.27;11.70;;;;;;;1.63;72.19;100725.73;1767617;81;21121;-52
2022/12/21 06:27:04;;;;;;;24.35;11.10;;;;;;;1.65;72.37;100724.62;1767623;81;21165;-50
2022/12/21 06:29:35;;;;;;;36.98;21.30;;;;;;;1.68;72.28;100728.90;1767737;81;21601;-51
2022/12/21 06:32:05;;;;;;;30.72;13.90;;;;;;;1.69;72.13;100733.31;1767767;81;21102;-50
2022/12/21 06:34:34;;;;;;;29.25;13.38;;;;;;;1.71;72.16;100735.38;1767652;81;21209;-51
2022/12/21 06:37:03;;;;;;;26.68;12.60;;;;;;;1.71;72.28;100734.89;1767715;81;21125;-51
2022/12/21 06:39:32;;;;;;;28.73;13.10;;;;;;;1.73;72.31;100742.86;1767711;81;21141;-50
2022/12/21 06:42:02;;;;;;;37.35;14.38;;;;;;;1.74;72.23;100749.48;1767748;81;21187;-52
2022/12/21 06:44:33;;;;;;;36.95;14.15;;;;;;;1.74;72.22;100741.87;1767631;81;21549;-51
2022/12/21 06:47:02;;;;;;;37.03;14.83;;;;;;;1.75;72.40;100738.19;1767496;81;21473;-51
2022/12/21 06:49:32;;;;;;;33.40;15.03;;;;;;;1.78;72.50;100740.62;1767761;81;21201;-54
2022/12/21 06:52:01;;;;;;;33.85;14.00;;;;;;;1.81;72.44;100739.00;1767712;81;21176;-52
2022/12/21 06:54:32;;;;;;;31.75;13.93;;;;;;;1.84;72.20;100741.44;1767691;81;21682;-52
2022/12/21 06:57:01;;;;;;;32.65;15.18;;;;;;;1.84;72.08;100735.53;1767693;81;21121;-52
2022/12/21 06:59:35;;;;;;;29.12;13.93;;;;;;;1.86;72.11;100747.56;1767764;81;21167;-51
2022/12/21 07:02:03;;;;;;;34.15;14.20;;;;;;;1.88;71.96;100737.48;1767847;81;21118;-52
2022/12/21 07:04:32;;;;;;;31.02;14.28;;;;;;;1.90;71.63;100746.30;1767735;81;21098;-51
2022/12/21 07:07:01;;;;;;;29.95;13.75;;;;;;;1.90;71.60;100747.66;1767818;81;21169;-52
2022/12/21 07:09:31;;;;;;;30.17;13.78;;;;;;;1.90;71.56;100745.81;1767902;81;21129;-51
2022/12/21 07:12:01;;;;;;;30.43;14.25;;;;;;;1.89;71.61;100745.45;1767792;81;21157;-50
2022/12/21 07:14:30;;;;;;;30.25;14.20;;;;;;;1.91;71.74;100746.17;1767831;81;21130;-51
2022/12/21 07:17:00;;;;;;;33.53;14.65;;;;;;;1.93;71.75;100749.23;1767742;81;21161;-53
2022/12/21 07:19:29;;;;;;;26.80;12.60;;;;;;;1.95;71.80;100756.71;1767851;81;21133;-53
2022/12/21 07:21:58;;;;;;;30.23;13.35;;;;;;;1.97;71.70;100755.62;1762981;81;21547;-51
2022/12/21 07:24:28;;;;;;;32.53;13.48;;;;;;;1.98;71.42;100764.09;1730429;83;21616;-51
2022/12/21 07:26:57;;;;;;;30.17;13.88;;;;;;;1.99;71.54;100769.85;1762112;81;21122;-52
2022/12/21 07:29:27;;;;;;;30.08;13.93;;;;;;;2.03;71.47;100769.95;1730475;83;21563;-51
2022/12/21 07:31:57;;;;;;;35.70;14.10;;;;;;;2.04;71.48;100759.99;1761871;81;21161;-52
2022/12/21 07:34:27;;;;;;;32.33;15.60;;;;;;;2.05;71.42;100766.62;1730534;81;21193;-51
2022/12/21 07:36:56;;;;;;;31.55;14.90;;;;;;;2.08;71.34;100762.78;1762170;81;21197;-53
2022/12/21 07:39:26;;;;;;;32.15;15.75;;;;;;;2.10;71.36;100767.56;1730475;81;21235;-52
2022/12/21 07:41:55;;;;;;;38.80;18.02;;;;;;;2.12;71.31;100761.03;1761873;81;21592;-52
2022/12/21 07:44:25;;;;;;;33.92;16.48;;;;;;;2.15;71.25;100759.91;1730752;83;21182;-53
2022/12/21 07:47:05;;;;;;;33.65;16.30;;;;;;;2.16;71.39;100767.88;1741621;81;21121;-53
2022/12/21 07:49:36;;;;;;;32.33;14.35;;;;;;;2.19;71.11;100762.70;1730534;83;21585;-52
2022/12/21 07:52:05;;;;;;;29.77;15.03;;;;;;;2.20;70.76;100764.41;1761996;81;21166;-54
2022/12/21 07:54:34;;;;;;;31.65;15.23;;;;;;;2.21;70.64;100772.38;1730445;83;21154;-52
2022/12/21 07:57:04;;;;;;;30.55;14.13;;;;;;;2.22;70.70;100771.40;1761964;81;21180;-51
2022/12/21 07:59:33;;;;;;;33.18;14.38;;;;;;;2.27;70.72;100780.95;1730738;83;21142;-51
2022/12/21 08:02:04;;;;;;;24.32;12.93;;;;;;;2.29;70.77;100778.47;1761877;81;21217;-52
2022/12/21 08:04:35;;;;;;;31.10;14.60;;;;;;;2.33;70.67;100775.00;1730493;83;21162;-52
2022/12/21 08:07:05;;;;;;;28.75;13.78;;;;;;;2.35;70.46;100776.58;1762000;81;21189;-52
2022/12/21 08:09:37;;;;;;;28.90;14.05;;;;;;;2.38;70.43;100779.50;1730505;83;21229;-52
2022/12/21 08:12:07;;;;;;;32.53;14.38;;;;;;;2.41;70.69;100772.47;1762134;81;21122;-51
2022/12/21 08:14:38;;;;;;;30.48;14.70;;;;;;;2.45;70.47;100773.41;1730096;82;21223;-52
2022/12/21 08:17:07;;;;;;;29.27;14.50;;;;;;;2.48;70.40;100767.73;1762056;81;21142;-53
2022/12/21 08:19:36;;;;;;;27.07;13.60;;;;;;;2.50;70.25;100757.62;1730487;83;21258;-52
2022/12/21 08:22:06;;;;;;;31.45;15.50;;;;;;;2.53;70.11;100753.80;1766114;81;21185;-53
2022/12/21 08:24:36;;;;;;;30.57;15.83;;;;;;;2.55;70.02;100749.10;1767713;81;21171;-53
2022/12/21 08:27:05;;;;;;;36.28;17.32;;;;;;;2.57;70.03;100751.17;1767602;81;21137;-51
2022/12/21 08:29:36;;;;;;;34.13;15.10;;;;;;;2.57;69.88;100748.47;1767827;81;21173;-52
2022/12/21 08:32:05;;;;;;;33.63;16.27;;;;;;;2.57;69.39;100748.47;1767762;81;21173;-53
2022/12/21 08:34:35;;;;;;;32.50;16.32;;;;;;;2.56;69.27;100741.35;1767889;81;21154;-51
2022/12/21 08:37:05;;;;;;;34.70;17.32;;;;;;;2.59;69.29;100740.22;1767774;81;21134;-52
2022/12/21 08:39:34;;;;;;;34.18;16.70;;;;;;;2.61;69.41;100740.97;1767739;81;21161;-53
2022/12/21 08:42:03;;;;;;;32.88;15.70;;;;;;;2.61;69.36;100736.41;1767672;81;21559;-53
2022/12/21 08:44:32;;;;;;;33.33;16.20;;;;;;;2.64;69.47;100736.63;1767780;81;21177;-51
2022/12/21 08:47:02;;;;;;;32.23;16.73;;;;;;;2.68;69.61;100738.06;1767668;81;21130;-53
2022/12/21 08:49:31;;;;;;;34.20;17.32;;;;;;;2.72;69.74;100743.06;1767600;81;21142;-54
2022/12/21 08:52:01;;;;;;;34.05;16.57;;;;;;;2.77;69.52;100740.80;1767656;81;21177;-52
2022/12/21 08:54:29;;;;;;;32.65;15.53;;;;;;;2.81;69.31;100737.31;1767819;81;21600;-52
2022/12/21 08:56:59;;;;;;;32.58;14.98;;;;;;;2.84;69.01;100735.18;1767697;81;21623;-52
2022/12/21 08:59:29;;;;;;;33.02;16.85;;;;;;;2.86;68.68;100729.13;1767764;81;21231;-53
2022/12/21 09:01:58;;;;;;;38.65;15.75;;;;;;;2.91;68.75;100724.65;1767563;81;21130;-51
2022/12/21 09:04:27;;;;;;;30.85;14.00;;;;;;;2.97;68.75;100731.34;1759977;81;21218;-53
2022/12/21 09:06:57;;;;;;;31.02;14.85;;;;;;;2.99;68.36;100730.21;1736893;81;21136;-56
2022/12/21 18:27:53;;;;;;;53.60;24.50;;;;;;;2.23;71.56;100458.17;1828815;78;28099;-56
2022/12/21 18:30:28;;;;;;;57.35;25.65;;;;;;;2.19;71.41;100454.05;1810768;79;21109;-57
2022/12/21 18:33:00;;;;;;;63.50;26.12;;;;;;;2.18;71.56;100448.78;1810339;79;21111;-57
2022/12/21 18:35:33;;;;;;;64.45;25.92;;;;;;;2.15;71.72;100440.47;1810331;79;21154;-57
2022/12/21 18:38:08;;;;;;;62.83;26.30;;;;;;;2.09;71.80;100441.04;1810227;79;21584;-57
2022/12/21 18:40:43;;;;;;;61.33;26.52;;;;;;;2.06;71.99;100444.52;1810695;79;21241;-56
2022/12/21 18:43:34;;;;;;;95.47;32.65;;;;;;;2.02;72.19;100434.98;1777687;79;21250;-56
2022/12/21 18:46:17;;;;;;;82.75;32.65;;;;;;;2.00;72.35;100441.89;1777229;79;21114;-57
2022/12/21 18:48:50;;;;;;;91.63;31.80;;;;;;;1.98;72.55;100444.37;1810174;79;21106;-56
2022/12/21 18:51:31;;;;;;;85.67;30.95;;;;;;;1.97;72.75;100446.72;1810260;79;21110;-57
2022/12/21 18:54:03;;;;;;;72.10;30.20;;;;;;;1.97;72.83;100446.23;1810179;79;21253;-57
2022/12/21 18:56:36;;;;;;;75.32;28.42;;;;;;;1.96;72.81;100446.37;1810227;79;21238;-57
2022/12/21 18:59:09;;;;;;;65.78;26.80;;;;;;;1.96;72.79;100433.71;1810534;79;21158;-56
2022/12/21 19:01:41;;;;;;;62.93;25.45;;;;;;;1.96;72.79;100424.75;1777594;79;21114;-57
2022/12/21 19:04:24;;;;;;;56.73;24.52;;;;;;;1.96;72.83;100424.25;1712917;79;21158;-56
2022/12/21 19:06:59;;;;;;;50.05;21.95;;;;;;;1.97;72.79;100422.41;1803384;79;21110;-57
2022/12/21 19:09:31;;;;;;;46.02;20.32;;;;;;;1.98;72.89;100422.76;1810405;79;21620;-57
2022/12/21 19:12:05;;;;;;;37.17;16.67;;;;;;;2.01;72.78;100423.83;1810155;79;21162;-57
2022/12/21 19:14:35;;;;;;;41.83;19.32;;;;;;;2.02;72.73;100424.19;1777788;79;21545;-60
2022/12/21 19:17:16;;;;;;;36.98;17.67;;;;;;;2.06;72.63;100427.81;1810225;79;21110;-58
2022/12/21 19:19:47;;;;;;;38.70;16.85;;;;;;;2.09;72.40;100428.02;1800405;79;21111;-59
2022/12/21 19:22:26;;;;;;;38.23;17.00;;;;;;;2.14;72.17;100432.00;1810172;79;21142;-57
2022/12/21 19:24:58;;;;;;;40.55;17.17;;;;;;;2.17;71.99;100426.31;1810380;79;21143;-59
2022/12/21 19:27:28;;;;;;;35.98;15.72;;;;;;;2.21;71.78;100419.62;1778253;79;21595;-58
2022/12/21 19:29:57;;;;;;;34.60;16.45;;;;;;;2.26;71.54;100425.09;1807653;78;21114;-59
2022/12/21 19:32:26;;;;;;;35.52;15.35;;;;;;;2.28;71.40;100434.77;1807860;78;21185;-59
2022/12/21 19:34:56;;;;;;;36.73;16.00;;;;;;;2.30;71.45;100426.52;1807827;79;21105;-57
2022/12/21 19:37:27;;;;;;;36.68;16.93;;;;;;;2.31;71.29;100418.75;1807757;78;21177;-58
2022/12/21 19:39:58;;;;;;;36.98;16.27;;;;;;;2.32;71.24;100419.96;1778727;79;21537;-58
2022/12/21 19:42:30;;;;;;;34.03;16.37;;;;;;;2.34;71.24;100430.13;1807667;79;21122;-61
2022/12/21 19:45:04;;;;;;;37.45;16.67;;;;;;;2.35;71.30;100431.84;1804935;79;21114;-58
2022/12/21 19:47:34;;;;;;;40.58;17.77;;;;;;;2.37;71.27;100431.70;1778809;79;21546;-58
2022/12/21 19:50:15;;;;;;;36.50;17.60;;;;;;;2.37;71.32;100427.64;1807802;79;21586;-58
2022/12/21 19:52:45;;;;;;;38.02;16.87;;;;;;;2.36;71.44;100422.73;1807509;79;21154;-58
2022/12/21 19:55:18;;;;;;;35.05;15.30;;;;;;;2.36;71.58;100424.58;1807689;79;21123;-58
2022/12/21 19:57:54;;;;;;;33.05;15.38;;;;;;;2.35;71.64;100429.64;1807576;79;21153;-59
2022/12/21 20:00:28;;;;;;;37.93;15.95;;;;;;;2.34;71.64;100430.63;1804788;79;21115;-56
2022/12/21 20:02:59;;;;;;;33.58;15.43;;;;;;;2.33;71.61;100427.08;1779420;79;21228;-58
2022/12/21 20:05:30;;;;;;;34.90;14.85;;;;;;;2.32;71.56;100435.33;1807756;79;21623;-57
2022/12/21 20:08:00;;;;;;;37.33;15.58;;;;;;;2.29;71.67;100433.77;1807687;79;21146;-57
2022/12/21 20:10:31;;;;;;;28.62;14.47;;;;;;;2.31;71.80;100424.16;1807827;79;21181;-58
2022/12/21 20:13:02;;;;;;;36.58;16.90;;;;;;;2.28;71.64;100427.16;1807825;79;21614;-59
2022/12/21 20:15:32;;;;;;;32.20;15.50;;;;;;;2.28;71.70;100423.09;1804959;79;21130;-59
2022/12/21 20:18:02;;;;;;;33.08;15.43;;;;;;;2.27;71.77;100428.15;1808002;79;21094;-57
2022/12/21 20:20:33;;;;;;;35.95;15.08;;;;;;;2.26;71.78;100416.98;1807773;79;21178;-57
2022/12/21 20:23:05;;;;;;;33.42;16.10;;;;;;;2.25;71.90;100414.78;1807974;79;21161;-58
2022/12/21 20:25:36;;;;;;;37.38;15.55;;;;;;;2.26;71.93;100414.28;1807847;79;21106;-59
2022/12/21 20:28:10;;;;;;;32.70;15.35;;;;;;;2.25;71.97;100412.58;1809584;79;21138;-59
2022/12/21 20:30:42;;;;;;;37.25;15.65;;;;;;;2.27;71.96;100420.05;1778116;79;21154;-58
2022/12/21 20:33:22;;;;;;;34.35;16.15;;;;;;;2.27;71.93;100424.09;1809670;79;21070;-58
2022/12/21 20:35:52;;;;;;;31.35;15.60;;;;;;;2.28;72.10;100421.75;1809876;79;21102;-59
2022/12/21 20:38:44;;;;;;;34.18;14.68;;;;;;;2.27;72.15;100412.78;1809537;79;21177;-58
2022/12/21 20:41:15;;;;;;;30.90;14.60;;;;;;;2.28;72.18;100405.53;1809720;79;21114;-60
2022/12/21 20:43:49;;;;;;;36.42;15.93;;;;;;;2.26;72.23;100408.88;1809773;79;21150;-58
2022/12/21 20:46:32;;;;;;;35.40;16.20;;;;;;;2.23;72.22;100401.91;1809702;79;21173;-58
2022/12/21 20:48:59;;;;;;;32.93;15.50;;;;;;;2.23;72.32;100406.81;1810035;79;21126;-59
2022/12/21 20:51:29;;;;;;;32.42;15.25;;;;;;;2.23;72.36;100404.61;1776666;79;21138;-57
2022/12/21 20:53:59;;;;;;;32.50;15.38;;;;;;;2.21;72.31;100403.40;1809613;79;21146;-58
2022/12/21 20:56:32;;;;;;;32.78;15.80;;;;;;;2.19;72.28;100406.75;1809605;79;21533;-59
2022/12/21 20:59:02;;;;;;;33.05;16.23;;;;;;;2.17;72.45;100410.09;1809518;79;21102;-58
2022/12/21 21:01:35;;;;;;;32.53;15.48;;;;;;;2.16;72.60;100404.33;1809752;79;21110;-58
2022/12/21 21:04:06;;;;;;;31.35;14.53;;;;;;;2.14;72.58;100406.83;1809585;79;21570;-58
2022/12/21 21:06:36;;;;;;;32.45;15.88;;;;;;;2.12;72.80;100405.62;1809954;79;21102;-58
2022/12/21 21:09:12;;;;;;;33.70;16.02;;;;;;;2.13;72.89;100392.95;1809605;79;21145;-57
2022/12/21 21:11:53;;;;;;;31.25;15.08;;;;;;;2.15;72.92;100397.72;1809521;79;21166;-58
2022/12/21 21:14:28;;;;;;;37.08;16.12;;;;;;;2.15;72.97;100393.17;1809636;79;21146;-60
2022/12/21 21:16:58;;;;;;;33.90;15.43;;;;;;;2.17;73.04;100382.21;1809781;79;21145;-58
2022/12/21 21:19:33;;;;;;;34.78;15.40;;;;;;;2.18;73.02;100381.22;1809605;79;21145;-58